Main page
METAR-TAF:

METAR-TAF

Airports :

Naval Station Rota

Rota, Spain

latitude: 36-39N, longitude: 006-21W, elevation: 26 m

Current weather observation

The report was made 31 minutes ago, at 17:30 UTC
Wind 13 kt from the West/Northwest, varying between West and Northwest
Temperature 22°C
Humidity 57%
Pressure 1015 hPa
Visibility 10 km or more
no clouds below 1500 m and no cumulonimbus

METAR: LERT 251730Z 29013KT 260V320 CAVOK 22/13 Q1015 NOSIG

Time: 20:01 (18:01 UTC)

Forecast

The report was made 4 hours and 1 minutes ago, at 14:00 UTC
Forecast valid from 25 at 15 UTC to 26 at 15 UTC
Wind 10 kt from the West/Northwest
Visibility 10 km or more
no clouds below 1500 m and no cumulonimbus
Becoming
from 25 at 20 UTC to 25 at 22 UTC
Wind 5 kt from the South
Becoming
from 26 at 11 UTC to 26 at 13 UTC
Wind 10 kt from the West

TAF: LERT 251400Z 2515/2615 30010KT CAVOK TX24/2515Z TN16/2606Z BECMG 2520/2522 18005KT BECMG 2611/2613 27010KT

Weather observations and forecasts of more than 4000 airports (METAR and TAF reports).

The available stations are represented by yellow and red dots on the map.

Hover mouse over dot to see the name of the station.

Then click to see weather observations and forecasts.

To change the map : click on the green buttons with a black cross to zoom in, on the green button with a dash to zoom out, or on the green arrows for adjacent maps.


METAR-TAF: